Time;durP1;ratioP1;P1;durP2;ratioP2;P2;SDS_P1;SDS_P2;PMS_P1;PMS_P2;Temp;Humidity;BMP_temperature;BMP_pressure;BME280_temperature;BME280_humidity;BME280_pressure;Samples;Min_cycle;Max_cycle;Signal;HPM_P1;HPM_P2
2023/04/03 00:01:09;;;;;;;2.65;1.20;;;3.50;99.90;;;;;;5052314;28;20138;-65
2023/04/03 00:03:36;;;;;;;3.63;1.10;;;3.50;99.90;;;;;;5063990;28;20033;-65
2023/04/03 00:06:02;;;;;;;2.95;1.23;;;3.60;99.90;;;;;;5056485;28;20081;-65
2023/04/03 00:08:30;;;;;;;3.47;1.30;;;3.50;99.90;;;;;;5058258;28;20033;-65
2023/04/03 00:10:56;;;;;;;4.63;1.20;;;3.50;99.90;;;;;;5058619;28;20053;-65
2023/04/03 00:13:22;;;;;;;3.45;1.20;;;3.50;99.90;;;;;;5054120;28;20044;-65
2023/04/03 00:15:48;;;;;;;3.70;1.10;;;3.50;99.90;;;;;;5054466;28;20040;-65
2023/04/03 00:18:13;;;;;;;5.82;1.20;;;3.40;99.90;;;;;;5059203;28;20045;-65
2023/04/03 00:20:39;;;;;;;3.60;1.05;;;3.40;99.90;;;;;;5066116;28;20490;-65
2023/04/03 00:23:05;;;;;;;3.83;1.50;;;3.40;99.90;;;;;;5068110;28;20052;-65
2023/04/03 00:25:30;;;;;;;3.78;1.20;;;3.40;99.90;;;;;;5063243;28;20045;-65
2023/04/03 00:27:56;;;;;;;3.53;1.08;;;3.40;99.90;;;;;;5063344;28;20041;-65
2023/04/03 00:30:23;;;;;;;3.55;1.30;;;3.40;99.90;;;;;;5050781;28;20133;-65
2023/04/03 00:32:50;;;;;;;3.20;0.95;;;3.40;99.90;;;;;;5062441;28;20033;-65
2023/04/03 00:35:17;;;;;;;2.72;1.10;;;3.30;99.90;;;;;;5062262;28;20441;-65
2023/04/03 00:37:43;;;;;;;4.35;1.20;;;3.40;99.90;;;;;;5062524;28;20320;-65
2023/04/03 00:40:10;;;;;;;3.10;0.95;;;3.30;99.90;;;;;;5052960;28;20103;-65
2023/04/03 00:42:40;;;;;;;3.63;1.00;;;3.40;99.90;;;;;;5066885;28;20091;-65
2023/04/03 00:45:06;;;;;;;2.55;1.10;;;3.30;99.90;;;;;;5054657;28;20045;-65
2023/04/03 00:47:32;;;;;;;3.15;1.00;;;3.30;99.90;;;;;;5063679;28;20056;-65
2023/04/03 00:49:58;;;;;;;5.97;1.55;;;3.30;99.90;;;;;;5066945;28;20063;-65
2023/04/03 00:52:28;;;;;;;4.00;1.17;;;3.30;99.90;;;;;;5060767;28;20772;-65
2023/04/03 00:55:00;;;;;;;4.80;1.20;;;3.30;99.90;;;;;;5055686;28;20069;-65
2023/04/03 00:57:27;;;;;;;2.40;1.10;;;3.30;99.90;;;;;;5056575;28;20049;-65
2023/04/03 00:59:59;;;;;;;2.97;1.20;;;3.30;99.90;;;;;;5054648;28;20127;-65
2023/04/03 01:02:25;;;;;;;3.17;1.10;;;3.30;99.90;;;;;;5054176;28;20143;-65
2023/04/03 01:04:51;;;;;;;5.32;1.38;;;3.20;99.90;;;;;;5052006;28;20147;-65
2023/04/03 01:07:22;;;;;;;2.42;1.05;;;3.20;99.90;;;;;;5053852;28;20096;-65
2023/04/03 01:09:51;;;;;;;5.20;1.30;;;3.10;99.90;;;;;;5054786;28;20056;-65
2023/04/03 01:12:24;;;;;;;2.95;1.08;;;3.10;99.90;;;;;;5052118;28;20520;-65
2023/04/03 01:14:59;;;;;;;4.53;1.30;;;3.10;99.90;;;;;;5052409;28;20122;-65
2023/04/03 01:17:31;;;;;;;3.38;1.10;;;3.10;99.90;;;;;;5057045;28;20044;-65
2023/04/03 01:20:08;;;;;;;3.63;1.00;;;3.00;99.90;;;;;;5053699;28;20368;-65
2023/04/03 01:22:48;;;;;;;6.20;1.35;;;3.00;99.90;;;;;;5055948;28;20476;-65
2023/04/03 01:25:14;;;;;;;2.88;1.17;;;3.00;99.90;;;;;;5065302;28;20049;-65
2023/04/03 01:27:39;;;;;;;4.28;1.30;;;3.00;99.90;;;;;;5055518;28;20045;-65
2023/04/03 01:30:12;;;;;;;3.70;1.20;;;3.00;99.90;;;;;;5052930;28;20056;-65
2023/04/03 01:32:41;;;;;;;3.55;1.30;;;2.90;99.90;;;;;;5055633;28;20100;-66
2023/04/03 01:35:09;;;;;;;4.70;1.63;;;2.80;99.90;;;;;;5055170;28;20108;-65
2023/04/03 01:37:34;;;;;;;3.40;1.20;;;2.80;99.90;;;;;;5058003;28;20060;-65
2023/04/03 01:40:00;;;;;;;5.00;1.50;;;2.80;99.90;;;;;;5057768;28;20045;-65
2023/04/03 01:42:25;;;;;;;3.08;1.17;;;2.80;99.90;;;;;;5056893;28;20424;-65
2023/04/03 01:44:51;;;;;;;4.93;1.30;;;2.70;99.90;;;;;;5065497;28;20095;-65
2023/04/03 01:47:16;;;;;;;5.10;1.35;;;2.80;99.90;;;;;;5047686;28;20065;-65
2023/04/03 01:49:42;;;;;;;3.50;1.40;;;2.70;99.90;;;;;;5055711;28;20048;-65
2023/04/03 01:52:08;;;;;;;4.63;1.40;;;2.70;99.90;;;;;;5058018;28;20144;-65
2023/04/03 01:54:33;;;;;;;3.72;1.55;;;2.60;99.90;;;;;;5053782;28;20407;-65
2023/04/03 01:56:59;;;;;;;3.03;1.25;;;2.60;99.90;;;;;;5054462;28;20114;-65
2023/04/03 01:59:28;;;;;;;3.60;1.17;;;2.70;99.90;;;;;;5045230;28;20112;-65
2023/04/03 02:01:54;;;;;;;5.47;1.48;;;2.60;99.90;;;;;;5049524;28;20055;-65
2023/04/03 02:04:19;;;;;;;3.78;1.30;;;2.60;99.90;;;;;;5053280;28;20460;-65
2023/04/03 02:06:45;;;;;;;5.03;1.38;;;2.60;99.90;;;;;;5057395;28;20037;-65
2023/04/03 02:09:11;;;;;;;3.00;1.27;;;2.50;99.90;;;;;;5061201;28;20041;-65
2023/04/03 02:11:36;;;;;;;4.05;1.52;;;2.60;99.90;;;;;;5052114;28;20044;-65
2023/04/03 02:14:03;;;;;;;4.13;1.33;;;2.50;99.90;;;;;;5055972;28;20041;-65
2023/04/03 02:16:29;;;;;;;2.97;1.30;;;2.60;99.90;;;;;;5054398;28;20106;-65
2023/04/03 02:18:54;;;;;;;2.50;1.17;;;2.60;99.90;;;;;;5064226;28;20028;-64
2023/04/03 02:21:20;;;;;;;6.88;1.48;;;2.60;99.90;;;;;;5062506;28;20517;-64
2023/04/03 02:23:46;;;;;;;7.13;1.88;;;2.50;99.90;;;;;;5054425;28;20049;-65
2023/04/03 02:26:13;;;;;;;4.45;1.45;;;2.50;99.90;;;;;;5053378;28;20040;-65
2023/04/03 02:28:40;;;;;;;5.13;1.45;;;2.50;99.90;;;;;;5064269;28;20040;-65
2023/04/03 02:31:07;;;;;;;5.80;1.50;;;2.50;99.90;;;;;;5054625;28;20468;-65
2023/04/03 02:33:33;;;;;;;3.70;1.50;;;2.40;99.90;;;;;;5059715;28;20470;-64
2023/04/03 02:35:59;;;;;;;4.78;1.35;;;2.50;99.90;;;;;;5058952;28;20045;-65
2023/04/03 02:38:25;;;;;;;3.00;1.20;;;2.40;99.90;;;;;;5071269;28;20036;-65
2023/04/03 02:40:51;;;;;;;5.85;1.58;;;2.40;99.90;;;;;;5071127;28;20127;-65
2023/04/03 02:43:17;;;;;;;4.18;1.60;;;2.40;99.90;;;;;;5062190;28;20469;-65
2023/04/03 02:45:43;;;;;;;6.38;2.05;;;2.40;99.90;;;;;;5050984;28;20088;-65
2023/04/03 02:48:09;;;;;;;5.25;1.40;;;2.40;99.90;;;;;;5051077;28;20087;-65
2023/04/03 02:50:34;;;;;;;3.95;1.75;;;2.30;99.90;;;;;;5053014;28;20587;-65
2023/04/03 02:53:00;;;;;;;6.15;1.90;;;2.30;99.90;;;;;;5048870;28;20045;-65
2023/04/03 02:55:26;;;;;;;4.30;1.65;;;2.20;99.90;;;;;;5045780;28;20114;-64
2023/04/03 02:57:51;;;;;;;4.63;1.45;;;2.20;99.90;;;;;;5045073;28;20094;-65
2023/04/03 03:00:17;;;;;;;5.03;1.70;;;2.30;99.90;;;;;;5060578;28;20032;-65
2023/04/03 03:02:43;;;;;;;4.65;1.67;;;2.30;99.90;;;;;;5043884;28;20522;-65
2023/04/03 03:05:09;;;;;;;6.47;1.95;;;2.30;99.90;;;;;;5050393;28;20048;-65
2023/04/03 03:07:34;;;;;;;4.32;1.58;;;2.30;99.90;;;;;;5045542;28;20079;-65
2023/04/03 03:10:00;;;;;;;4.82;1.83;;;2.30;99.90;;;;;;5051015;28;20521;-65
2023/04/03 03:12:26;;;;;;;4.93;1.80;;;2.30;99.90;;;;;;5043613;28;20468;-65
2023/04/03 03:14:51;;;;;;;5.97;1.85;;;2.20;99.90;;;;;;5046515;28;20037;-65
2023/04/03 03:17:17;;;;;;;5.28;1.45;;;2.20;99.90;;;;;;5052998;28;20333;-65
2023/04/03 03:19:43;;;;;;;5.07;1.65;;;2.10;99.90;;;;;;5051631;28;20055;-65
2023/04/03 03:22:09;;;;;;;5.75;1.73;;;2.20;99.90;;;;;;5053243;28;20052;-65
2023/04/03 03:24:35;;;;;;;4.18;1.50;;;2.20;99.90;;;;;;5060143;28;20119;-65
2023/04/03 03:27:00;;;;;;;6.65;1.60;;;2.20;99.90;;;;;;5051509;28;20041;-65
2023/04/03 03:29:26;;;;;;;4.60;1.70;;;2.20;99.90;;;;;;5043462;28;20502;-65
2023/04/03 03:31:51;;;;;;;5.45;2.13;;;2.20;99.90;;;;;;5042702;28;21670;-65
2023/04/03 03:34:17;;;;;;;5.90;1.77;;;2.10;99.90;;;;;;5044657;28;21114;-65
2023/04/03 03:36:43;;;;;;;7.32;2.25;;;2.10;99.90;;;;;;5047316;28;20788;-65
2023/04/03 03:39:09;;;;;;;5.03;1.83;;;2.10;99.90;;;;;;5046258;28;20041;-65
2023/04/03 03:41:34;;;;;;;6.28;2.00;;;2.10;99.90;;;;;;5044688;28;20049;-65
2023/04/03 03:44:00;;;;;;;6.35;2.00;;;2.10;99.90;;;;;;5045632;28;20114;-65
2023/04/03 03:46:26;;;;;;;5.32;1.77;;;2.10;99.90;;;;;;5044961;28;20079;-65
2023/04/03 03:48:51;;;;;;;6.43;1.60;;;2.10;99.90;;;;;;5043554;28;20432;-64
2023/04/03 03:51:17;;;;;;;7.82;1.77;;;2.10;99.90;;;;;;5048324;28;20048;-64
2023/04/03 03:53:42;;;;;;;6.55;1.80;;;2.10;99.90;;;;;;5047071;28;20045;-65
2023/04/03 03:56:08;;;;;;;5.18;1.73;;;2.00;99.90;;;;;;5044918;28;20471;-65
2023/04/03 03:58:34;;;;;;;4.32;1.73;;;1.90;99.90;;;;;;5045268;28;20095;-65
2023/04/03 04:01:05;;;;;;;8.98;1.92;;;1.90;99.90;;;;;;5046337;28;20078;-65
2023/04/03 04:03:30;;;;;;;4.60;1.95;;;1.90;99.90;;;;;;5042226;28;20033;-65
2023/04/03 04:05:56;;;;;;;6.43;1.80;;;1.80;99.90;;;;;;5047968;28;20059;-65
2023/04/03 04:08:22;;;;;;;7.30;2.10;;;1.90;99.90;;;;;;5052286;28;20041;-65
2023/04/03 04:10:48;;;;;;;4.70;2.10;;;1.90;99.90;;;;;;5055912;28;20033;-65
2023/04/03 04:13:13;;;;;;;5.22;1.70;;;1.80;99.90;;;;;;5045602;28;20052;-65
2023/04/03 04:15:40;;;;;;;5.05;1.98;;;1.80;99.90;;;;;;5061189;28;20052;-65
2023/04/03 04:18:05;;;;;;;5.60;1.83;;;1.80;99.90;;;;;;5056022;28;20124;-65
2023/04/03 04:20:31;;;;;;;4.47;1.58;;;1.80;99.90;;;;;;5064200;28;20112;-65
2023/04/03 04:22:56;;;;;;;4.80;1.80;;;1.80;99.90;;;;;;5061408;28;20052;-65
2023/04/03 04:25:22;;;;;;;6.00;1.80;;;1.80;99.90;;;;;;5059763;28;20051;-65
2023/04/03 04:27:48;;;;;;;5.22;1.90;;;1.80;99.90;;;;;;5063100;28;20442;-66
2023/04/03 04:30:14;;;;;;;4.47;1.80;;;1.80;99.90;;;;;;5052997;28;20037;-66
2023/04/03 04:32:40;;;;;;;6.13;1.90;;;1.70;99.90;;;;;;5066467;28;20093;-63
2023/04/03 04:35:06;;;;;;;5.43;1.60;;;1.70;99.90;;;;;;5052952;28;20044;-64
2023/04/03 04:37:32;;;;;;;3.80;1.70;;;1.70;99.90;;;;;;5058103;28;20045;-64
2023/04/03 04:39:57;;;;;;;5.82;2.25;;;1.60;99.90;;;;;;5060384;28;20473;-63
2023/04/03 04:42:23;;;;;;;7.55;1.85;;;1.50;99.90;;;;;;5059649;28;20345;-63
2023/04/03 04:44:49;;;;;;;9.10;1.98;;;1.40;99.90;;;;;;5054651;28;20111;-63
2023/04/03 04:47:14;;;;;;;4.13;1.50;;;1.40;99.90;;;;;;5060784;28;20071;-63
2023/04/03 04:49:40;;;;;;;8.02;1.92;;;1.40;99.90;;;;;;5062401;28;20067;-63
2023/04/03 04:52:06;;;;;;;7.25;1.88;;;1.40;99.90;;;;;;5065095;28;20126;-63
2023/04/03 04:54:32;;;;;;;6.55;1.80;;;1.30;99.90;;;;;;5068244;28;20044;-64
2023/04/03 04:56:57;;;;;;;6.55;1.65;;;1.30;99.90;;;;;;5063587;28;20475;-63
2023/04/03 04:59:23;;;;;;;7.63;2.20;;;1.30;99.90;;;;;;5066878;28;20044;-63
2023/04/03 05:01:48;;;;;;;5.32;1.98;;;1.30;99.90;;;;;;5067668;28;20092;-62
2023/04/03 05:04:15;;;;;;;5.57;1.90;;;1.20;99.90;;;;;;5059571;28;20047;-63
2023/04/03 05:06:40;;;;;;;5.32;2.08;;;1.30;99.90;;;;;;5059854;28;20075;-63
2023/04/03 05:09:06;;;;;;;6.80;2.55;;;1.30;99.90;;;;;;5056784;28;20064;-64
2023/04/03 05:11:32;;;;;;;7.85;2.45;;;1.20;99.90;;;;;;5055805;28;20426;-63
2023/04/03 05:13:58;;;;;;;6.68;2.38;;;1.20;99.90;;;;;;5059818;28;20123;-64
2023/04/03 05:16:23;;;;;;;7.90;1.95;;;1.20;99.90;;;;;;5063883;28;20033;-65
2023/04/03 05:18:49;;;;;;;6.53;1.85;;;1.20;99.90;;;;;;5052201;28;20157;-64
2023/04/03 05:21:15;;;;;;;6.18;2.22;;;1.20;99.90;;;;;;5058700;28;20045;-64
2023/04/03 05:23:40;;;;;;;6.15;2.30;;;1.20;99.90;;;;;;5064922;28;20045;-65
2023/04/03 05:26:06;;;;;;;7.72;2.42;;;1.20;99.90;;;;;;5053346;28;20049;-64
2023/04/03 05:28:32;;;;;;;6.68;2.10;;;1.20;99.90;;;;;;5062278;28;20525;-64
2023/04/03 05:30:58;;;;;;;6.95;2.08;;;1.20;99.90;;;;;;5063248;28;20040;-64
2023/04/03 05:33:26;;;;;;;7.15;2.30;;;1.20;99.90;;;;;;5059224;28;20102;-64
2023/04/03 05:35:52;;;;;;;7.28;2.47;;;1.20;99.90;;;;;;5063663;28;20045;-64
2023/04/03 05:38:18;;;;;;;4.53;1.90;;;1.20;99.90;;;;;;5054988;28;20086;-65
2023/04/03 05:40:44;;;;;;;7.90;2.35;;;1.20;99.90;;;;;;5067957;28;20055;-65
2023/04/03 05:43:10;;;;;;;7.85;2.35;;;1.20;99.90;;;;;;5057061;28;20063;-65
2023/04/03 05:45:35;;;;;;;8.02;2.63;;;1.30;99.90;;;;;;5063165;28;20036;-64
2023/04/03 05:48:01;;;;;;;6.97;2.30;;;1.30;99.90;;;;;;5067341;28;20068;-64
2023/04/03 05:50:27;;;;;;;7.05;2.20;;;1.40;99.90;;;;;;5065448;28;20067;-65
2023/04/03 05:52:56;;;;;;;6.53;2.03;;;1.40;99.90;;;;;;5066583;28;20049;-64
2023/04/03 05:55:22;;;;;;;5.30;2.03;;;1.30;99.90;;;;;;5058173;28;20384;-64
2023/04/03 05:57:48;;;;;;;8.57;2.30;;;1.40;99.90;;;;;;5067933;28;20036;-64
2023/04/03 06:00:17;;;;;;;5.45;2.03;;;1.40;99.90;;;;;;5072205;28;20040;-64
2023/04/03 06:02:43;;;;;;;5.60;2.10;;;1.40;99.90;;;;;;5069537;28;20044;-65
2023/04/03 06:05:11;;;;;;;6.25;1.90;;;1.50;99.90;;;;;;5059097;28;20143;-64
2023/04/03 06:07:37;;;;;;;10.18;2.25;;;1.60;99.90;;;;;;5066290;28;20464;-64
2023/04/03 06:10:03;;;;;;;5.97;2.20;;;1.60;99.90;;;;;;5072003;28;20043;-63
2023/04/03 06:12:32;;;;;;;7.47;2.17;;;1.60;99.90;;;;;;5066440;28;20499;-64
2023/04/03 06:15:02;;;;;;;7.93;2.25;;;1.70;99.90;;;;;;5072091;28;20059;-63
2023/04/03 06:17:27;;;;;;;6.28;2.50;;;1.80;99.90;;;;;;5069600;28;20451;-65
2023/04/03 06:19:53;;;;;;;8.00;2.38;;;1.80;99.90;;;;;;5060960;28;20047;-65
2023/04/03 06:22:18;;;;;;;6.43;1.88;;;1.80;99.90;;;;;;5068722;28;20040;-65
2023/04/03 06:24:44;;;;;;;7.35;2.03;;;1.90;99.90;;;;;;5068869;28;20048;-65
2023/04/03 06:27:11;;;;;;;6.93;1.90;;;1.90;99.90;;;;;;5061996;28;20400;-65
2023/04/03 06:29:36;;;;;;;6.93;2.15;;;2.00;99.90;;;;;;5070700;28;20040;-65
2023/04/03 06:32:02;;;;;;;5.32;1.92;;;2.00;99.90;;;;;;5070610;28;20089;-65
2023/04/03 06:34:28;;;;;;;6.93;2.35;;;2.00;99.90;;;;;;5064541;28;20197;-65
2023/04/03 06:36:53;;;;;;;6.13;1.90;;;2.10;99.90;;;;;;5052213;28;20036;-65
2023/04/03 06:39:22;;;;;;;7.00;2.10;;;2.20;99.90;;;;;;5056820;28;20137;-65
2023/04/03 06:41:48;;;;;;;6.78;2.22;;;2.20;99.90;;;;;;5069697;28;20047;-65
2023/04/03 06:44:15;;;;;;;5.65;2.05;;;2.20;99.90;;;;;;5068735;28;20084;-65
2023/04/03 06:46:42;;;;;;;7.53;2.17;;;2.30;99.90;;;;;;5065984;28;20403;-65
2023/04/03 06:49:07;;;;;;;4.65;1.75;;;2.30;99.90;;;;;;5060854;28;20356;-65
2023/04/03 06:51:34;;;;;;;6.53;1.95;;;2.40;99.90;;;;;;5066936;28;20147;-65
2023/04/03 06:54:00;;;;;;;6.65;1.90;;;2.40;99.90;;;;;;5070258;28;20040;-65
2023/04/03 06:56:27;;;;;;;6.20;2.13;;;2.50;99.90;;;;;;5063904;28;20044;-64
2023/04/03 06:58:57;;;;;;;8.05;2.35;;;2.60;99.90;;;;;;5068831;28;20099;-65
2023/04/03 07:01:25;;;;;;;6.63;1.80;;;2.70;99.90;;;;;;5070511;28;20186;-64
2023/04/03 07:03:51;;;;;;;5.63;1.63;;;2.80;99.90;;;;;;5057076;28;20059;-65
2023/04/03 07:06:18;;;;;;;6.25;1.80;;;2.80;99.90;;;;;;5067342;28;20037;-65
2023/04/03 07:08:45;;;;;;;9.60;2.05;;;2.90;99.90;;;;;;5063344;28;20040;-65
2023/04/03 07:11:11;;;;;;;7.05;1.90;;;3.00;99.90;;;;;;5068386;28;20040;-64
2023/04/03 07:13:37;;;;;;;8.02;2.00;;;3.10;99.90;;;;;;5070296;28;20045;-64
2023/04/03 07:16:04;;;;;;;5.53;1.40;;;3.10;99.90;;;;;;5068837;28;20033;-64
2023/04/03 07:18:31;;;;;;;4.65;1.90;;;3.10;99.90;;;;;;5065527;28;20417;-64
2023/04/03 07:20:57;;;;;;;6.97;2.10;;;3.20;99.90;;;;;;5064502;28;20036;-64
2023/04/03 07:23:23;;;;;;;5.60;1.67;;;3.30;99.90;;;;;;5070746;28;20045;-65
2023/04/03 07:25:51;;;;;;;6.10;1.75;;;3.40;99.90;;;;;;5069301;28;20044;-64
2023/04/03 07:28:18;;;;;;;4.10;1.50;;;3.40;99.90;;;;;;5067124;28;20508;-64
2023/04/03 07:30:48;;;;;;;5.47;1.60;;;3.40;99.90;;;;;;5066925;28;20048;-65
2023/04/03 07:33:15;;;;;;;3.15;1.23;;;3.50;99.90;;;;;;5069104;28;20547;-65
2023/04/03 07:35:41;;;;;;;6.80;1.63;;;3.60;99.90;;;;;;5067422;28;20037;-65
2023/04/03 07:38:08;;;;;;;4.00;1.20;;;3.60;99.90;;;;;;5066227;28;20490;-65
2023/04/03 07:40:34;;;;;;;5.43;1.52;;;3.70;99.90;;;;;;5062136;28;20037;-65
2023/04/03 07:43:00;;;;;;;4.45;1.50;;;3.70;99.90;;;;;;5067141;28;20045;-65
2023/04/03 07:45:26;;;;;;;4.07;1.33;;;3.80;99.90;;;;;;5063908;28;20330;-65
2023/04/03 07:47:52;;;;;;;4.07;1.52;;;3.90;99.90;;;;;;5049922;28;20044;-65
2023/04/03 07:50:18;;;;;;;4.97;1.50;;;4.00;99.90;;;;;;5050163;28;20041;-65
2023/04/03 07:52:45;;;;;;;3.53;1.23;;;4.00;99.90;;;;;;5053700;28;20112;-65
2023/04/03 07:55:12;;;;;;;4.63;1.48;;;4.10;99.90;;;;;;5062167;28;20071;-64
2023/04/03 07:57:37;;;;;;;6.15;1.52;;;4.20;99.90;;;;;;5069308;28;20120;-64
2023/04/03 08:00:04;;;;;;;5.72;1.90;;;4.30;99.90;;;;;;5061121;28;20123;-65
2023/04/03 08:02:31;;;;;;;6.45;1.38;;;4.30;99.90;;;;;;5068523;28;20468;-65
2023/04/03 08:04:57;;;;;;;4.40;1.50;;;4.40;99.90;;;;;;5061662;28;20122;-65
2023/04/03 08:07:23;;;;;;;5.38;1.63;;;4.50;99.90;;;;;;5063871;28;20049;-65
2023/04/03 08:09:49;;;;;;;5.53;1.33;;;4.60;99.90;;;;;;5066877;28;20625;-65
2023/04/03 08:12:15;;;;;;;6.13;1.40;;;4.70;99.90;;;;;;5057626;28;20057;-65
2023/04/03 08:14:41;;;;;;;7.47;1.30;;;4.80;99.90;;;;;;5067319;28;20041;-65
2023/04/03 08:17:11;;;;;;;4.13;1.30;;;4.90;99.90;;;;;;5056343;28;20470;-65
2023/04/03 08:19:37;;;;;;;4.95;1.50;;;4.90;99.90;;;;;;5068185;28;20135;-64
2023/04/03 08:22:03;;;;;;;4.05;1.30;;;5.00;99.90;;;;;;5062101;28;20485;-64
2023/04/03 08:24:29;;;;;;;4.68;1.55;;;5.10;99.90;;;;;;5064806;28;20040;-65
2023/04/03 08:26:55;;;;;;;4.53;1.20;;;5.00;99.90;;;;;;5064132;28;20556;-64
2023/04/03 08:29:21;;;;;;;4.80;1.23;;;5.10;99.90;;;;;;5068414;28;20135;-64
2023/04/03 08:31:47;;;;;;;5.43;1.38;;;5.20;99.90;;;;;;5063769;28;20163;-65
2023/04/03 08:34:14;;;;;;;2.90;1.38;;;5.30;99.90;;;;;;5061920;28;20064;-65
2023/04/03 08:36:39;;;;;;;5.13;1.70;;;5.40;99.90;;;;;;5068063;28;20142;-64
2023/04/03 08:39:06;;;;;;;5.30;1.60;;;5.50;99.90;;;;;;5055057;28;20127;-65
2023/04/03 08:41:33;;;;;;;4.28;1.40;;;5.50;99.90;;;;;;5056195;28;20175;-64
2023/04/03 08:44:04;;;;;;;3.17;1.10;;;5.60;99.90;;;;;;5061566;28;20049;-64
2023/04/03 08:46:48;;;;;;;4.25;1.23;;;5.60;99.90;;;;;;5062447;28;20056;-65
2023/04/03 08:49:31;;;;;;;3.92;1.10;;;5.70;99.90;;;;;;5059517;28;20181;-65
2023/04/03 08:52:00;;;;;;;3.15;1.10;;;5.80;99.90;;;;;;5056014;28;20096;-65
2023/04/03 08:54:57;;;;;;;3.70;1.17;;;5.90;99.90;;;;;;5068387;28;20270;-65
2023/04/03 08:57:44;;;;;;;2.78;0.90;;;6.00;99.90;;;;;;5058973;28;20045;-64
2023/04/03 09:00:22;;;;;;;5.05;1.35;;;6.10;99.90;;;;;;5069315;28;20052;-65
2023/04/03 09:02:50;;;;;;;3.55;1.50;;;6.20;99.90;;;;;;5057111;28;20106;-65
2023/04/03 09:05:40;;;;;;;3.55;1.15;;;6.20;99.90;;;;;;5064061;28;20108;-65
2023/04/03 09:08:22;;;;;;;2.50;0.98;;;6.30;99.90;;;;;;5071489;28;20049;-64
2023/04/03 09:10:52;;;;;;;4.63;1.05;;;6.40;99.90;;;;;;5067549;28;20345;-64
2023/04/03 09:13:42;;;;;;;3.17;0.80;;;6.40;99.90;;;;;;5072048;28;20578;-65
2023/04/03 09:16:21;;;;;;;2.40;1.00;;;6.50;99.90;;;;;;5071360;28;20098;-65
2023/04/03 09:19:09;;;;;;;3.38;1.00;;;6.50;99.90;;;;;;5071523;28;20045;-65
2023/04/03 09:21:38;;;;;;;2.40;0.85;;;6.70;99.90;;;;;;5059240;28;20056;-65
2023/04/03 09:24:07;;;;;;;5.88;1.58;;;6.70;99.90;;;;;;5071923;28;20488;-65
2023/04/03 09:26:46;;;;;;;3.05;0.75;;;6.80;99.90;;;;;;5071671;28;20131;-65
2023/04/03 09:29:18;;;;;;;5.30;1.05;;;6.90;99.90;;;;;;5069063;28;20392;-65
2023/04/03 09:31:47;;;;;;;2.15;0.73;;;6.90;99.90;;;;;;5058123;28;20063;-65
2023/04/03 09:34:22;;;;;;;2.47;0.75;;;7.00;99.90;;;;;;5072243;28;20095;-65
2023/04/03 09:36:51;;;;;;;4.95;1.25;;;7.00;97.70;;;;;;5065328;28;20041;-65
2023/04/03 09:39:18;;;;;;;6.45;1.45;;;7.10;99.00;;;;;;5058615;28;20059;-65
2023/04/03 09:41:57;;;;;;;1.73;0.65;;;7.10;98.60;;;;;;5066462;28;20046;-65
2023/04/03 09:44:30;;;;;;;3.63;0.90;;;7.20;96.40;;;;;;5063527;28;20190;-65
2023/04/03 09:46:56;;;;;;;2.85;0.73;;;7.30;96.10;;;;;;5062767;28;20080;-66
2023/04/03 09:49:21;;;;;;;6.10;1.00;;;7.30;95.70;;;;;;5070298;28;20096;-65
2023/04/03 09:51:47;;;;;;;1.77;0.77;;;7.40;96.70;;;;;;5063224;28;20053;-65
2023/04/03 09:54:37;;;;;;;1.60;0.60;;;7.50;94.50;;;;;;5070355;28;20071;-65
2023/04/03 09:57:11;;;;;;;2.85;0.63;;;7.50;93.60;;;;;;5069449;28;20044;-65
2023/04/03 09:59:43;;;;;;;2.53;0.98;;;7.60;94.10;;;;;;5071176;28;20093;-65
2023/04/03 10:02:23;;;;;;;3.15;1.00;;;7.60;92.80;;;;;;5061424;28;20080;-65
2023/04/03 10:04:49;;;;;;;4.55;0.73;;;7.70;95.00;;;;;;5062543;28;20108;-65
2023/04/03 10:07:29;;;;;;;3.38;0.80;;;7.80;94.90;;;;;;5069091;28;20140;-65
2023/04/03 10:10:01;;;;;;;2.70;0.90;;;7.90;92.70;;;;;;5067302;28;20121;-65
2023/04/03 10:12:27;;;;;;;3.25;0.82;;;7.90;91.20;;;;;;5070768;28;20051;-65
2023/04/03 10:14:53;;;;;;;2.30;0.60;;;7.90;91.70;;;;;;5064556;28;20124;-64
2023/04/03 10:17:22;;;;;;;3.67;0.60;;;7.90;91.20;;;;;;5067707;28;20032;-65
2023/04/03 10:20:24;;;;;;;3.17;0.80;;;8.00;87.90;;;;;;5070420;28;20050;-65
2023/04/03 10:23:11;;;;;;;2.05;0.70;;;8.10;86.70;;;;;;5071351;28;20135;-65
2023/04/03 10:25:54;;;;;;;2.97;0.60;;;8.10;81.40;;;;;;5071324;28;20518;-65
2023/04/03 10:28:23;;;;;;;2.80;0.60;;;8.10;76.10;;;;;;5068860;28;20040;-65
2023/04/03 10:30:57;;;;;;;1.75;0.60;;;8.20;82.40;;;;;;5071910;28;20036;-65
2023/04/03 10:33:59;;;;;;;2.33;0.77;;;8.20;81.30;;;;;;5070902;28;20045;-65
2023/04/03 10:36:54;;;;;;;2.97;0.77;;;8.20;78.60;;;;;;5062253;28;20068;-65
2023/04/03 10:39:25;;;;;;;2.00;0.80;;;8.30;75.50;;;;;;5066418;28;20399;-65
2023/04/03 10:42:16;;;;;;;2.15;0.77;;;8.30;77.60;;;;;;5067556;28;20517;-65
2023/04/03 10:44:47;;;;;;;2.30;0.70;;;8.40;78.90;;;;;;5059211;28;20041;-65
2023/04/03 10:47:22;;;;;;;2.85;0.88;;;8.40;79.10;;;;;;5068993;28;20052;-65
2023/04/03 10:50:02;;;;;;;1.63;0.60;;;8.50;79.50;;;;;;5060762;28;20036;-65
2023/04/03 10:52:34;;;;;;;1.45;0.68;;;8.60;77.60;;;;;;5061224;28;20155;-65
2023/04/03 10:55:26;;;;;;;3.13;0.80;;;8.60;81.30;;;;;;5068892;28;20227;-65
2023/04/03 10:57:54;;;;;;;1.83;0.60;;;8.60;76.10;;;;;;5064918;28;20106;-65
2023/04/03 11:00:41;;;;;;;2.67;0.80;;;8.60;77.90;;;;;;5069982;28;20044;-65
2023/04/03 11:03:35;;;;;;;2.30;0.70;;;8.70;81.20;;;;;;5069656;28;20087;-64
2023/04/03 11:06:06;;;;;;;4.28;0.70;;;8.80;79.70;;;;;;5062579;28;20048;-64
2023/04/03 11:08:54;;;;;;;2.47;0.77;;;8.80;82.10;;;;;;5065019;28;20139;-65
2023/04/03 11:11:41;;;;;;;2.15;0.73;;;8.90;82.80;;;;;;5063817;28;20145;-65
2023/04/03 11:14:32;;;;;;;2.28;0.85;;;9.00;81.40;;;;;;5063662;28;20048;-65
2023/04/03 11:17:17;;;;;;;1.58;0.68;;;9.10;82.80;;;;;;5070107;28;20550;-64
2023/04/03 11:19:52;;;;;;;;;;;9.20;84.30;;;;;;5067159;28;20036;-65
2023/04/03 11:22:28;;;;;;;2.60;0.90;;;9.20;80.90;;;;;;5057186;28;20329;-65
2023/04/03 11:24:58;;;;;;;2.47;0.75;;;9.10;77.80;;;;;;5068895;28;20089;-65
2023/04/03 11:27:25;;;;;;;2.03;0.82;;;9.20;80.30;;;;;;5059168;28;20051;-64
2023/04/03 11:29:53;;;;;;;2.70;0.90;;;9.20;80.10;;;;;;5067910;28;20509;-65
2023/04/03 11:32:53;;;;;;;2.47;1.00;;;9.10;79.80;;;;;;5058542;28;20045;-64
2023/04/03 11:35:20;;;;;;;4.18;1.20;;;9.10;73.40;;;;;;5062091;28;20036;-65
2023/04/03 11:37:50;;;;;;;3.72;0.88;;;9.10;78.30;;;;;;5069198;28;20483;-65
2023/04/03 11:40:17;;;;;;;2.58;0.85;;;9.10;77.90;;;;;;5071182;28;20043;-65
2023/04/03 11:42:48;;;;;;;2.70;1.10;;;9.10;78.60;;;;;;5053974;28;20091;-65
2023/04/03 11:45:32;;;;;;;5.18;1.00;;;9.10;76.60;;;;;;5063255;28;20044;-65
2023/04/03 11:48:29;;;;;;;2.78;0.80;;;9.10;76.40;;;;;;5049493;28;20049;-65
2023/04/03 11:51:16;;;;;;;1.90;0.82;;;9.10;74.70;;;;;;5055206;28;20048;-65
2023/04/03 11:53:42;;;;;;;2.47;0.88;;;9.10;79.10;;;;;;5069163;28;20125;-65
2023/04/03 11:56:27;;;;;;;5.40;1.63;;;9.20;77.10;;;;;;5070282;28;20127;-65
2023/04/03 11:59:05;;;;;;;2.47;0.90;;;9.20;74.40;;;;;;5067155;28;20049;-64
2023/04/03 12:01:46;;;;;;;4.78;0.90;;;9.30;74.80;;;;;;5069720;28;20098;-65
2023/04/03 12:04:15;;;;;;;3.65;1.02;;;9.30;75.20;;;;;;5069845;28;20072;-65
2023/04/03 12:06:42;;;;;;;2.80;0.70;;;9.30;75.60;;;;;;5062651;28;20052;-65
2023/04/03 12:09:32;;;;;;;2.83;1.00;;;9.40;77.20;;;;;;5057751;28;20468;-65
2023/04/03 12:12:00;;;;;;;6.15;1.00;;;9.40;74.90;;;;;;5063741;28;20051;-65
2023/04/03 12:14:27;;;;;;;2.63;0.80;;;9.50;76.90;;;;;;5057317;28;20253;-64
2023/04/03 12:16:57;;;;;;;3.58;1.00;;;9.50;75.40;;;;;;5056909;28;20191;-65
2023/04/03 12:19:43;;;;;;;2.33;0.88;;;9.60;76.50;;;;;;5067878;28;20040;-64
2023/04/03 12:22:20;;;;;;;3.05;0.70;;;9.60;72.30;;;;;;5067388;28;20169;-65
2023/04/03 12:24:49;;;;;;;2.35;0.80;;;9.60;74.50;;;;;;5069645;28;20451;-65
2023/04/03 12:27:29;;;;;;;2.55;0.90;;;9.60;72.40;;;;;;5063922;28;20513;-65
2023/04/03 12:30:13;;;;;;;2.50;0.80;;;9.60;74.50;;;;;;5070287;28;20041;-65
2023/04/03 12:32:57;;;;;;;1.73;0.90;;;9.70;77.80;;;;;;5063763;28;20044;-65
2023/04/03 12:35:43;;;;;;;2.10;0.80;;;9.80;74.70;;;;;;5066232;28;20179;-64
2023/04/03 12:38:25;;;;;;;3.30;0.70;;;9.70;72.80;;;;;;5072143;28;20087;-65
2023/04/03 12:41:12;;;;;;;4.45;1.25;;;9.80;74.60;;;;;;5067089;28;20129;-65
2023/04/03 12:44:11;;;;;;;3.60;0.80;;;9.80;72.90;;;;;;5063858;28;20046;-65
2023/04/03 12:46:46;;;;;;;2.25;0.80;;;9.80;71.30;;;;;;5067917;28;20123;-65
2023/04/03 12:49:24;;;;;;;3.60;0.90;;;9.90;73.40;;;;;;5064339;28;20053;-66
2023/04/03 12:51:50;;;;;;;4.28;1.23;;;10.00;74.10;;;;;;5064485;28;20557;-65
2023/04/03 12:54:35;;;;;;;3.30;1.05;;;10.00;72.60;;;;;;5059897;28;20214;-65
2023/04/03 12:57:32;;;;;;;2.63;0.98;;;9.90;72.00;;;;;;5070898;28;20139;-65
2023/04/03 12:59:58;;;;;;;3.25;1.10;;;10.00;72.30;;;;;;5059914;28;20060;-65
2023/04/03 13:02:33;;;;;;;2.72;0.90;;;10.00;74.50;;;;;;5071477;28;20323;-65
2023/04/03 13:05:06;;;;;;;3.38;1.10;;;10.10;72.40;;;;;;5070878;28;20144;-65
2023/04/03 13:07:37;;;;;;;2.42;0.75;;;10.10;73.20;;;;;;5069612;28;20499;-65
2023/04/03 13:10:08;;;;;;;3.45;0.90;;;10.10;72.10;;;;;;5072570;28;20082;-64
2023/04/03 13:12:52;;;;;;;2.40;0.80;;;10.10;72.00;;;;;;5072870;28;20048;-64